sensor_id;sensor_type;location;lat;lon;timestamp;P1;durP1;ratioP1;P2;durP2;ratioP2
80623;SDS011;70269;44.768;9.600;2024-03-29T00:01:04;14.48;;;6.75;;
80623;SDS011;70269;44.768;9.600;2024-03-29T00:03:29;8.95;;;4.28;;
80623;SDS011;70269;44.768;9.600;2024-03-29T00:05:55;13.15;;;4.88;;
80623;SDS011;70269;44.768;9.600;2024-03-29T00:08:20;9.80;;;4.68;;
80623;SDS011;70269;44.768;9.600;2024-03-29T00:10:46;9.68;;;4.30;;
80623;SDS011;70269;44.768;9.600;2024-03-29T00:13:12;9.80;;;4.30;;
80623;SDS011;70269;44.768;9.600;2024-03-29T00:15:38;14.30;;;5.90;;
80623;SDS011;70269;44.768;9.600;2024-03-29T00:18:04;8.95;;;4.18;;
80623;SDS011;70269;44.768;9.600;2024-03-29T00:20:29;15.35;;;5.97;;
80623;SDS011;70269;44.768;9.600;2024-03-29T00:22:55;13.07;;;5.00;;
80623;SDS011;70269;44.768;9.600;2024-03-29T00:25:21;11.15;;;4.55;;
80623;SDS011;70269;44.768;9.600;2024-03-29T00:27:46;6.50;;;3.67;;
80623;SDS011;70269;44.768;9.600;2024-03-29T00:30:13;12.00;;;5.68;;
80623;SDS011;70269;44.768;9.600;2024-03-29T00:32:39;9.10;;;4.78;;
80623;SDS011;70269;44.768;9.600;2024-03-29T00:35:05;11.10;;;4.68;;
80623;SDS011;70269;44.768;9.600;2024-03-29T00:37:31;8.68;;;4.05;;
80623;SDS011;70269;44.768;9.600;2024-03-29T00:39:57;6.10;;;3.45;;
80623;SDS011;70269;44.768;9.600;2024-03-29T00:42:22;8.55;;;3.55;;
80623;SDS011;70269;44.768;9.600;2024-03-29T00:44:49;10.30;;;4.68;;
80623;SDS011;70269;44.768;9.600;2024-03-29T00:47:15;14.00;;;4.63;;
80623;SDS011;70269;44.768;9.600;2024-03-29T00:49:41;11.57;;;4.18;;
80623;SDS011;70269;44.768;9.600;2024-03-29T00:52:06;12.02;;;4.38;;
80623;SDS011;70269;44.768;9.600;2024-03-29T00:54:32;10.38;;;5.00;;
80623;SDS011;70269;44.768;9.600;2024-03-29T00:56:58;12.10;;;5.50;;
80623;SDS011;70269;44.768;9.600;2024-03-29T00:59:23;13.27;;;4.18;;
80623;SDS011;70269;44.768;9.600;2024-03-29T01:01:49;10.43;;;3.92;;
80623;SDS011;70269;44.768;9.600;2024-03-29T01:04:16;6.72;;;3.05;;
80623;SDS011;70269;44.768;9.600;2024-03-29T01:06:42;6.05;;;3.78;;
80623;SDS011;70269;44.768;9.600;2024-03-29T01:09:08;9.18;;;3.20;;
80623;SDS011;70269;44.768;9.600;2024-03-29T01:11:36;8.32;;;4.22;;
80623;SDS011;70269;44.768;9.600;2024-03-29T01:14:02;9.20;;;3.90;;
80623;SDS011;70269;44.768;9.600;2024-03-29T01:16:29;7.35;;;3.30;;
80623;SDS011;70269;44.768;9.600;2024-03-29T01:18:54;8.05;;;3.28;;
80623;SDS011;70269;44.768;9.600;2024-03-29T01:21:20;6.75;;;3.25;;
80623;SDS011;70269;44.768;9.600;2024-03-29T01:23:45;8.18;;;4.10;;
80623;SDS011;70269;44.768;9.600;2024-03-29T01:26:11;8.38;;;4.70;;
80623;SDS011;70269;44.768;9.600;2024-03-29T01:28:37;11.32;;;3.88;;
80623;SDS011;70269;44.768;9.600;2024-03-29T01:31:04;9.93;;;4.72;;
80623;SDS011;70269;44.768;9.600;2024-03-29T01:33:30;9.48;;;3.80;;
80623;SDS011;70269;44.768;9.600;2024-03-29T01:36:02;12.18;;;4.85;;
80623;SDS011;70269;44.768;9.600;2024-03-29T01:38:31;9.88;;;3.80;;
80623;SDS011;70269;44.768;9.600;2024-03-29T01:40:56;12.90;;;5.35;;
80623;SDS011;70269;44.768;9.600;2024-03-29T01:43:22;11.10;;;4.70;;
80623;SDS011;70269;44.768;9.600;2024-03-29T01:45:49;7.90;;;3.50;;
80623;SDS011;70269;44.768;9.600;2024-03-29T01:48:18;8.35;;;2.63;;
80623;SDS011;70269;44.768;9.600;2024-03-29T01:50:44;8.95;;;4.47;;
80623;SDS011;70269;44.768;9.600;2024-03-29T01:53:10;10.40;;;3.80;;
80623;SDS011;70269;44.768;9.600;2024-03-29T01:55:36;7.40;;;3.08;;
80623;SDS011;70269;44.768;9.600;2024-03-29T01:58:03;8.63;;;4.22;;
80623;SDS011;70269;44.768;9.600;2024-03-29T02:00:30;12.23;;;5.32;;
80623;SDS011;70269;44.768;9.600;2024-03-29T02:03:00;9.82;;;4.35;;
80623;SDS011;70269;44.768;9.600;2024-03-29T02:05:27;7.20;;;4.43;;
80623;SDS011;70269;44.768;9.600;2024-03-29T02:07:53;8.88;;;4.05;;
80623;SDS011;70269;44.768;9.600;2024-03-29T02:10:19;10.13;;;4.10;;
80623;SDS011;70269;44.768;9.600;2024-03-29T02:12:45;9.70;;;4.15;;
80623;SDS011;70269;44.768;9.600;2024-03-29T02:15:14;9.77;;;3.97;;
80623;SDS011;70269;44.768;9.600;2024-03-29T02:17:41;8.07;;;4.13;;
80623;SDS011;70269;44.768;9.600;2024-03-29T02:20:07;5.90;;;2.35;;
80623;SDS011;70269;44.768;9.600;2024-03-29T02:22:33;16.58;;;6.18;;
80623;SDS011;70269;44.768;9.600;2024-03-29T02:25:06;10.70;;;3.03;;
80623;SDS011;70269;44.768;9.600;2024-03-29T02:27:32;8.50;;;3.67;;
80623;SDS011;70269;44.768;9.600;2024-03-29T02:29:57;9.35;;;3.08;;
80623;SDS011;70269;44.768;9.600;2024-03-29T02:32:23;13.10;;;4.95;;
80623;SDS011;70269;44.768;9.600;2024-03-29T02:34:48;10.27;;;3.78;;
80623;SDS011;70269;44.768;9.600;2024-03-29T02:37:14;8.32;;;3.55;;
80623;SDS011;70269;44.768;9.600;2024-03-29T02:39:40;6.25;;;2.25;;
80623;SDS011;70269;44.768;9.600;2024-03-29T02:42:05;4.68;;;2.35;;
80623;SDS011;70269;44.768;9.600;2024-03-29T02:44:31;5.47;;;1.80;;
80623;SDS011;70269;44.768;9.600;2024-03-29T02:46:57;6.13;;;3.03;;
80623;SDS011;70269;44.768;9.600;2024-03-29T02:49:23;6.47;;;3.50;;
80623;SDS011;70269;44.768;9.600;2024-03-29T02:51:48;5.60;;;2.70;;
80623;SDS011;70269;44.768;9.600;2024-03-29T02:54:16;9.32;;;3.40;;
80623;SDS011;70269;44.768;9.600;2024-03-29T02:56:42;6.55;;;3.38;;
80623;SDS011;70269;44.768;9.600;2024-03-29T02:59:07;6.60;;;3.00;;
80623;SDS011;70269;44.768;9.600;2024-03-29T03:01:33;7.30;;;3.22;;
80623;SDS011;70269;44.768;9.600;2024-03-29T03:03:58;5.72;;;2.78;;
80623;SDS011;70269;44.768;9.600;2024-03-29T03:06:24;10.38;;;3.40;;
80623;SDS011;70269;44.768;9.600;2024-03-29T03:08:50;3.53;;;2.08;;
80623;SDS011;70269;44.768;9.600;2024-03-29T03:11:33;8.57;;;3.63;;
80623;SDS011;70269;44.768;9.600;2024-03-29T03:13:59;7.45;;;3.10;;
80623;SDS011;70269;44.768;9.600;2024-03-29T03:16:25;9.73;;;3.53;;
80623;SDS011;70269;44.768;9.600;2024-03-29T03:18:50;5.07;;;2.47;;
80623;SDS011;70269;44.768;9.600;2024-03-29T03:21:16;9.27;;;3.53;;
80623;SDS011;70269;44.768;9.600;2024-03-29T03:23:42;7.00;;;3.35;;
80623;SDS011;70269;44.768;9.600;2024-03-29T03:26:07;6.25;;;3.10;;
80623;SDS011;70269;44.768;9.600;2024-03-29T03:28:33;10.55;;;3.13;;
80623;SDS011;70269;44.768;9.600;2024-03-29T03:31:00;7.22;;;3.17;;
80623;SDS011;70269;44.768;9.600;2024-03-29T03:33:26;7.28;;;3.88;;
80623;SDS011;70269;44.768;9.600;2024-03-29T03:35:52;5.70;;;3.03;;
80623;SDS011;70269;44.768;9.600;2024-03-29T03:38:17;6.78;;;3.47;;
80623;SDS011;70269;44.768;9.600;2024-03-29T03:40:43;9.68;;;3.60;;
80623;SDS011;70269;44.768;9.600;2024-03-29T03:43:09;9.68;;;3.30;;
80623;SDS011;70269;44.768;9.600;2024-03-29T03:45:35;8.73;;;3.10;;
80623;SDS011;70269;44.768;9.600;2024-03-29T03:48:05;9.05;;;2.78;;
80623;SDS011;70269;44.768;9.600;2024-03-29T03:50:32;8.07;;;3.30;;
80623;SDS011;70269;44.768;9.600;2024-03-29T03:52:58;8.00;;;2.88;;
80623;SDS011;70269;44.768;9.600;2024-03-29T03:55:24;7.05;;;2.85;;
80623;SDS011;70269;44.768;9.600;2024-03-29T03:57:50;6.00;;;3.03;;
80623;SDS011;70269;44.768;9.600;2024-03-29T04:00:17;6.68;;;3.28;;
80623;SDS011;70269;44.768;9.600;2024-03-29T04:02:51;6.50;;;2.85;;
80623;SDS011;70269;44.768;9.600;2024-03-29T04:05:18;6.45;;;2.22;;
80623;SDS011;70269;44.768;9.600;2024-03-29T04:07:44;10.07;;;3.28;;
80623;SDS011;70269;44.768;9.600;2024-03-29T04:10:10;10.95;;;2.92;;
80623;SDS011;70269;44.768;9.600;2024-03-29T04:12:36;8.20;;;2.83;;
80623;SDS011;70269;44.768;9.600;2024-03-29T04:15:02;6.65;;;2.83;;
80623;SDS011;70269;44.768;9.600;2024-03-29T04:17:29;6.68;;;2.63;;
80623;SDS011;70269;44.768;9.600;2024-03-29T04:19:58;5.22;;;2.38;;
80623;SDS011;70269;44.768;9.600;2024-03-29T04:22:24;10.45;;;2.30;;
80623;SDS011;70269;44.768;9.600;2024-03-29T04:24:50;5.20;;;1.75;;
80623;SDS011;70269;44.768;9.600;2024-03-29T04:27:16;5.35;;;2.50;;
80623;SDS011;70269;44.768;9.600;2024-03-29T04:29:42;6.68;;;2.72;;
80623;SDS011;70269;44.768;9.600;2024-03-29T04:32:08;7.55;;;2.55;;
80623;SDS011;70269;44.768;9.600;2024-03-29T04:34:33;5.40;;;1.98;;
80623;SDS011;70269;44.768;9.600;2024-03-29T04:36:59;5.03;;;2.13;;
80623;SDS011;70269;44.768;9.600;2024-03-29T04:39:25;8.50;;;2.85;;
80623;SDS011;70269;44.768;9.600;2024-03-29T04:41:51;3.90;;;1.88;;
80623;SDS011;70269;44.768;9.600;2024-03-29T04:44:23;6.30;;;2.17;;
80623;SDS011;70269;44.768;9.600;2024-03-29T04:46:50;5.55;;;2.95;;
80623;SDS011;70269;44.768;9.600;2024-03-29T04:49:18;10.65;;;2.75;;
80623;SDS011;70269;44.768;9.600;2024-03-29T04:51:48;4.50;;;2.50;;
80623;SDS011;70269;44.768;9.600;2024-03-29T04:54:17;7.30;;;2.22;;
80623;SDS011;70269;44.768;9.600;2024-03-29T04:56:43;7.53;;;2.15;;
80623;SDS011;70269;44.768;9.600;2024-03-29T04:59:08;4.63;;;2.10;;
80623;SDS011;70269;44.768;9.600;2024-03-29T05:01:38;5.75;;;2.80;;
80623;SDS011;70269;44.768;9.600;2024-03-29T05:04:04;7.38;;;2.90;;
80623;SDS011;70269;44.768;9.600;2024-03-29T05:06:31;5.55;;;2.53;;
80623;SDS011;70269;44.768;9.600;2024-03-29T05:08:57;6.10;;;2.20;;
80623;SDS011;70269;44.768;9.600;2024-03-29T05:11:22;6.57;;;1.92;;
80623;SDS011;70269;44.768;9.600;2024-03-29T05:13:48;3.95;;;1.55;;
80623;SDS011;70269;44.768;9.600;2024-03-29T05:16:14;6.93;;;2.75;;
80623;SDS011;70269;44.768;9.600;2024-03-29T05:18:40;7.85;;;2.15;;
80623;SDS011;70269;44.768;9.600;2024-03-29T05:21:05;6.75;;;1.67;;
80623;SDS011;70269;44.768;9.600;2024-03-29T05:23:31;4.25;;;1.48;;
80623;SDS011;70269;44.768;9.600;2024-03-29T05:25:57;6.07;;;2.22;;
80623;SDS011;70269;44.768;9.600;2024-03-29T05:28:22;6.07;;;2.28;;
80623;SDS011;70269;44.768;9.600;2024-03-29T05:30:48;6.32;;;2.72;;
80623;SDS011;70269;44.768;9.600;2024-03-29T05:33:14;5.10;;;3.00;;
80623;SDS011;70269;44.768;9.600;2024-03-29T05:35:40;8.77;;;2.58;;
80623;SDS011;70269;44.768;9.600;2024-03-29T05:38:06;7.63;;;3.10;;
80623;SDS011;70269;44.768;9.600;2024-03-29T05:40:32;6.38;;;2.42;;
80623;SDS011;70269;44.768;9.600;2024-03-29T05:42:58;4.25;;;2.45;;
80623;SDS011;70269;44.768;9.600;2024-03-29T05:45:27;4.72;;;2.35;;
80623;SDS011;70269;44.768;9.600;2024-03-29T05:47:55;3.85;;;1.65;;
80623;SDS011;70269;44.768;9.600;2024-03-29T05:50:23;9.10;;;2.63;;
80623;SDS011;70269;44.768;9.600;2024-03-29T05:52:50;5.30;;;2.65;;
80623;SDS011;70269;44.768;9.600;2024-03-29T05:55:18;6.28;;;2.97;;
80623;SDS011;70269;44.768;9.600;2024-03-29T05:57:44;6.60;;;2.80;;
80623;SDS011;70269;44.768;9.600;2024-03-29T06:00:11;7.22;;;2.45;;
80623;SDS011;70269;44.768;9.600;2024-03-29T06:02:39;8.43;;;3.28;;
80623;SDS011;70269;44.768;9.600;2024-03-29T06:05:05;8.65;;;4.15;;
80623;SDS011;70269;44.768;9.600;2024-03-29T06:07:31;7.13;;;3.05;;
80623;SDS011;70269;44.768;9.600;2024-03-29T06:10:01;7.18;;;2.60;;
80623;SDS011;70269;44.768;9.600;2024-03-29T06:12:30;10.48;;;3.42;;
80623;SDS011;70269;44.768;9.600;2024-03-29T06:14:57;8.40;;;3.20;;
80623;SDS011;70269;44.768;9.600;2024-03-29T06:17:41;4.65;;;2.03;;
80623;SDS011;70269;44.768;9.600;2024-03-29T06:20:07;5.75;;;2.72;;
80623;SDS011;70269;44.768;9.600;2024-03-29T06:22:33;7.28;;;2.90;;
80623;SDS011;70269;44.768;9.600;2024-03-29T06:24:58;8.35;;;3.30;;
80623;SDS011;70269;44.768;9.600;2024-03-29T06:27:29;6.38;;;2.70;;
80623;SDS011;70269;44.768;9.600;2024-03-29T06:29:58;5.60;;;2.25;;
80623;SDS011;70269;44.768;9.600;2024-03-29T06:32:24;10.98;;;2.70;;
80623;SDS011;70269;44.768;9.600;2024-03-29T06:34:50;8.18;;;2.90;;
80623;SDS011;70269;44.768;9.600;2024-03-29T06:37:15;10.38;;;2.83;;
80623;SDS011;70269;44.768;9.600;2024-03-29T06:39:42;7.60;;;3.05;;
80623;SDS011;70269;44.768;9.600;2024-03-29T06:42:08;7.00;;;2.65;;
80623;SDS011;70269;44.768;9.600;2024-03-29T06:44:34;7.00;;;2.92;;
80623;SDS011;70269;44.768;9.600;2024-03-29T06:47:02;6.68;;;2.70;;
80623;SDS011;70269;44.768;9.600;2024-03-29T06:49:28;7.40;;;2.92;;
80623;SDS011;70269;44.768;9.600;2024-03-29T06:51:53;6.95;;;2.72;;
80623;SDS011;70269;44.768;9.600;2024-03-29T06:54:21;9.68;;;2.17;;
80623;SDS011;70269;44.768;9.600;2024-03-29T06:56:52;5.50;;;2.00;;
80623;SDS011;70269;44.768;9.600;2024-03-29T06:59:21;5.65;;;2.35;;
80623;SDS011;70269;44.768;9.600;2024-03-29T07:01:47;4.03;;;1.83;;
80623;SDS011;70269;44.768;9.600;2024-03-29T07:04:17;7.80;;;2.50;;
80623;SDS011;70269;44.768;9.600;2024-03-29T07:06:46;7.30;;;2.35;;
80623;SDS011;70269;44.768;9.600;2024-03-29T07:09:20;4.35;;;1.98;;
80623;SDS011;70269;44.768;9.600;2024-03-29T07:11:47;8.82;;;3.03;;
80623;SDS011;70269;44.768;9.600;2024-03-29T07:14:14;3.85;;;1.65;;
80623;SDS011;70269;44.768;9.600;2024-03-29T07:16:42;5.93;;;3.08;;
80623;SDS011;70269;44.768;9.600;2024-03-29T07:19:08;7.55;;;2.70;;
80623;SDS011;70269;44.768;9.600;2024-03-29T07:21:33;11.05;;;4.13;;
80623;SDS011;70269;44.768;9.600;2024-03-29T07:23:59;8.52;;;4.03;;
80623;SDS011;70269;44.768;9.600;2024-03-29T07:26:25;7.18;;;3.25;;
80623;SDS011;70269;44.768;9.600;2024-03-29T07:28:50;5.53;;;2.53;;
80623;SDS011;70269;44.768;9.600;2024-03-29T07:31:16;8.90;;;4.38;;
80623;SDS011;70269;44.768;9.600;2024-03-29T07:33:42;11.68;;;3.22;;
80623;SDS011;70269;44.768;9.600;2024-03-29T07:36:07;6.00;;;3.03;;
80623;SDS011;70269;44.768;9.600;2024-03-29T07:38:36;8.00;;;3.38;;
80623;SDS011;70269;44.768;9.600;2024-03-29T07:41:03;9.43;;;3.20;;
80623;SDS011;70269;44.768;9.600;2024-03-29T07:43:38;6.70;;;2.83;;
80623;SDS011;70269;44.768;9.600;2024-03-29T07:46:05;5.85;;;2.78;;
80623;SDS011;70269;44.768;9.600;2024-03-29T07:50:59;9.95;;;3.30;;
80623;SDS011;70269;44.768;9.600;2024-03-29T07:53:25;9.30;;;3.97;;
80623;SDS011;70269;44.768;9.600;2024-03-29T07:55:51;10.57;;;3.35;;
80623;SDS011;70269;44.768;9.600;2024-03-29T07:58:16;10.45;;;4.18;;
80623;SDS011;70269;44.768;9.600;2024-03-29T08:00:42;10.02;;;3.60;;
80623;SDS011;70269;44.768;9.600;2024-03-29T08:03:08;10.85;;;4.20;;
80623;SDS011;70269;44.768;9.600;2024-03-29T08:05:34;5.53;;;2.55;;
80623;SDS011;70269;44.768;9.600;2024-03-29T08:08:00;7.90;;;3.17;;
80623;SDS011;70269;44.768;9.600;2024-03-29T08:10:26;8.60;;;3.45;;
80623;SDS011;70269;44.768;9.600;2024-03-29T08:12:51;9.25;;;3.35;;
80623;SDS011;70269;44.768;9.600;2024-03-29T08:15:17;6.55;;;3.47;;
80623;SDS011;70269;44.768;9.600;2024-03-29T08:17:43;7.85;;;3.03;;
80623;SDS011;70269;44.768;9.600;2024-03-29T08:20:10;6.72;;;3.00;;
80623;SDS011;70269;44.768;9.600;2024-03-29T08:22:36;8.57;;;3.80;;
80623;SDS011;70269;44.768;9.600;2024-03-29T08:25:02;13.27;;;4.78;;
80623;SDS011;70269;44.768;9.600;2024-03-29T08:27:27;8.18;;;4.95;;
80623;SDS011;70269;44.768;9.600;2024-03-29T08:29:53;6.45;;;2.85;;
80623;SDS011;70269;44.768;9.600;2024-03-29T08:32:19;9.48;;;4.38;;
80623;SDS011;70269;44.768;9.600;2024-03-29T08:34:46;10.27;;;4.22;;
80623;SDS011;70269;44.768;9.600;2024-03-29T08:37:11;10.98;;;4.70;;
80623;SDS011;70269;44.768;9.600;2024-03-29T08:39:37;11.75;;;4.90;;
80623;SDS011;70269;44.768;9.600;2024-03-29T08:42:03;14.10;;;4.53;;
80623;SDS011;70269;44.768;9.600;2024-03-29T08:44:34;9.23;;;5.00;;
80623;SDS011;70269;44.768;9.600;2024-03-29T08:47:00;7.97;;;3.88;;
80623;SDS011;70269;44.768;9.600;2024-03-29T08:49:27;7.82;;;3.53;;
80623;SDS011;70269;44.768;9.600;2024-03-29T08:51:53;8.40;;;3.53;;
80623;SDS011;70269;44.768;9.600;2024-03-29T08:54:19;11.25;;;3.28;;
80623;SDS011;70269;44.768;9.600;2024-03-29T08:56:44;11.95;;;5.65;;
80623;SDS011;70269;44.768;9.600;2024-03-29T08:59:10;14.43;;;5.43;;
80623;SDS011;70269;44.768;9.600;2024-03-29T09:01:43;18.50;;;8.02;;
80623;SDS011;70269;44.768;9.600;2024-03-29T09:04:11;16.58;;;7.18;;
80623;SDS011;70269;44.768;9.600;2024-03-29T09:06:37;14.98;;;7.35;;
80623;SDS011;70269;44.768;9.600;2024-03-29T09:09:06;18.10;;;8.40;;
80623;SDS011;70269;44.768;9.600;2024-03-29T09:11:32;16.58;;;7.82;;
80623;SDS011;70269;44.768;9.600;2024-03-29T09:34:19;53.97;;;28.92;;
80623;SDS011;70269;44.768;9.600;2024-03-29T09:36:54;16.13;;;7.78;;
80623;SDS011;70269;44.768;9.600;2024-03-29T09:39:19;16.10;;;6.78;;
80623;SDS011;70269;44.768;9.600;2024-03-29T09:41:45;16.25;;;8.45;;
80623;SDS011;70269;44.768;9.600;2024-03-29T09:44:11;17.75;;;7.38;;
80623;SDS011;70269;44.768;9.600;2024-03-29T09:46:37;15.93;;;7.88;;
80623;SDS011;70269;44.768;9.600;2024-03-29T09:49:05;22.83;;;9.25;;
80623;SDS011;70269;44.768;9.600;2024-03-29T09:51:32;20.98;;;9.15;;
80623;SDS011;70269;44.768;9.600;2024-03-29T09:53:59;20.98;;;8.02;;
80623;SDS011;70269;44.768;9.600;2024-03-29T09:56:26;20.52;;;9.13;;
80623;SDS011;70269;44.768;9.600;2024-03-29T09:58:52;16.30;;;7.25;;
80623;SDS011;70269;44.768;9.600;2024-03-29T10:01:18;17.08;;;8.38;;
80623;SDS011;70269;44.768;9.600;2024-03-29T10:03:50;12.18;;;6.43;;
80623;SDS011;70269;44.768;9.600;2024-03-29T10:06:18;17.75;;;8.43;;
80623;SDS011;70269;44.768;9.600;2024-03-29T10:08:47;16.52;;;7.50;;
80623;SDS011;70269;44.768;9.600;2024-03-29T10:11:14;18.48;;;8.45;;
80623;SDS011;70269;44.768;9.600;2024-03-29T10:13:43;17.40;;;8.55;;
80623;SDS011;70269;44.768;9.600;2024-03-29T10:16:12;19.77;;;9.88;;
80623;SDS011;70269;44.768;9.600;2024-03-29T10:18:40;19.17;;;8.55;;
80623;SDS011;70269;44.768;9.600;2024-03-29T10:21:07;21.48;;;8.88;;
80623;SDS011;70269;44.768;9.600;2024-03-29T10:23:33;27.45;;;12.27;;
80623;SDS011;70269;44.768;9.600;2024-03-29T10:26:03;19.85;;;11.60;;
80623;SDS011;70269;44.768;9.600;2024-03-29T10:28:32;23.50;;;10.75;;
80623;SDS011;70269;44.768;9.600;2024-03-29T10:31:03;22.60;;;9.63;;
80623;SDS011;70269;44.768;9.600;2024-03-29T10:33:29;14.20;;;6.15;;
80623;SDS011;70269;44.768;9.600;2024-03-29T10:35:59;26.95;;;12.95;;
80623;SDS011;70269;44.768;9.600;2024-03-29T10:38:26;20.70;;;10.32;;
80623;SDS011;70269;44.768;9.600;2024-03-29T10:40:52;30.60;;;13.13;;
80623;SDS011;70269;44.768;9.600;2024-03-29T10:43:19;27.27;;;12.35;;
80623;SDS011;70269;44.768;9.600;2024-03-29T10:45:47;22.88;;;11.95;;
80623;SDS011;70269;44.768;9.600;2024-03-29T10:48:14;17.70;;;8.82;;
80623;SDS011;70269;44.768;9.600;2024-03-29T10:50:41;20.38;;;10.63;;
80623;SDS011;70269;44.768;9.600;2024-03-29T10:53:11;26.77;;;14.07;;
80623;SDS011;70269;44.768;9.600;2024-03-29T10:55:40;25.63;;;13.68;;
80623;SDS011;70269;44.768;9.600;2024-03-29T10:58:07;19.92;;;11.85;;
80623;SDS011;70269;44.768;9.600;2024-03-29T11:00:45;26.40;;;11.70;;
80623;SDS011;70269;44.768;9.600;2024-03-29T11:03:20;19.75;;;9.75;;
80623;SDS011;70269;44.768;9.600;2024-03-29T11:05:52;23.75;;;13.02;;
80623;SDS011;70269;44.768;9.600;2024-03-29T11:08:26;26.48;;;11.73;;
80623;SDS011;70269;44.768;9.600;2024-03-29T11:10:57;22.95;;;12.38;;
80623;SDS011;70269;44.768;9.600;2024-03-29T11:16:08;24.85;;;11.60;;
80623;SDS011;70269;44.768;9.600;2024-03-29T11:18:37;25.98;;;12.15;;
80623;SDS011;70269;44.768;9.600;2024-03-29T11:21:04;24.15;;;11.93;;
80623;SDS011;70269;44.768;9.600;2024-03-29T11:23:35;30.27;;;12.18;;
80623;SDS011;70269;44.768;9.600;2024-03-29T11:26:00;25.58;;;11.98;;
80623;SDS011;70269;44.768;9.600;2024-03-29T11:28:29;30.85;;;13.38;;
80623;SDS011;70269;44.768;9.600;2024-03-29T11:36:12;19.35;;;10.32;;
80623;SDS011;70269;44.768;9.600;2024-03-29T11:38:41;23.25;;;10.50;;
80623;SDS011;70269;44.768;9.600;2024-03-29T11:41:12;25.55;;;10.35;;
80623;SDS011;70269;44.768;9.600;2024-03-29T11:43:39;24.67;;;13.05;;
80623;SDS011;70269;44.768;9.600;2024-03-29T11:46:06;25.60;;;11.70;;
80623;SDS011;70269;44.768;9.600;2024-03-29T11:48:34;21.35;;;10.32;;
80623;SDS011;70269;44.768;9.600;2024-03-29T11:51:01;25.92;;;12.65;;
80623;SDS011;70269;44.768;9.600;2024-03-29T11:53:28;26.50;;;13.63;;
80623;SDS011;70269;44.768;9.600;2024-03-29T11:55:55;27.45;;;12.02;;
80623;SDS011;70269;44.768;9.600;2024-03-29T11:58:26;17.10;;;9.25;;
80623;SDS011;70269;44.768;9.600;2024-03-29T12:00:53;21.85;;;9.95;;
80623;SDS011;70269;44.768;9.600;2024-03-29T12:03:20;20.38;;;11.23;;
80623;SDS011;70269;44.768;9.600;2024-03-29T12:05:48;19.10;;;9.13;;
80623;SDS011;70269;44.768;9.600;2024-03-29T12:08:24;25.60;;;11.93;;
80623;SDS011;70269;44.768;9.600;2024-03-29T12:10:51;25.33;;;12.63;;
80623;SDS011;70269;44.768;9.600;2024-03-29T12:13:17;23.20;;;14.23;;
80623;SDS011;70269;44.768;9.600;2024-03-29T12:15:43;28.10;;;13.98;;
80623;SDS011;70269;44.768;9.600;2024-03-29T12:18:09;27.60;;;12.40;;
80623;SDS011;70269;44.768;9.600;2024-03-29T12:20:37;25.77;;;12.27;;
80623;SDS011;70269;44.768;9.600;2024-03-29T12:23:04;21.52;;;10.40;;
80623;SDS011;70269;44.768;9.600;2024-03-29T12:25:38;24.80;;;12.25;;
80623;SDS011;70269;44.768;9.600;2024-03-29T12:28:04;28.27;;;13.15;;
80623;SDS011;70269;44.768;9.600;2024-03-29T12:30:32;19.95;;;10.27;;
80623;SDS011;70269;44.768;9.600;2024-03-29T12:35:54;15.25;;;8.38;;
80623;SDS011;70269;44.768;9.600;2024-03-29T12:38:21;19.80;;;9.30;;
80623;SDS011;70269;44.768;9.600;2024-03-29T12:40:49;21.65;;;10.35;;
80623;SDS011;70269;44.768;9.600;2024-03-29T12:43:19;20.70;;;10.48;;
80623;SDS011;70269;44.768;9.600;2024-03-29T12:45:46;23.45;;;10.63;;
80623;SDS011;70269;44.768;9.600;2024-03-29T12:50:39;27.05;;;13.65;;
80623;SDS011;70269;44.768;9.600;2024-03-29T12:53:07;23.05;;;10.38;;
80623;SDS011;70269;44.768;9.600;2024-03-29T12:55:33;25.25;;;12.77;;
80623;SDS011;70269;44.768;9.600;2024-03-29T12:58:04;22.58;;;11.30;;
80623;SDS011;70269;44.768;9.600;2024-03-29T13:00:35;26.98;;;12.02;;
80623;SDS011;70269;44.768;9.600;2024-03-29T13:03:01;17.52;;;9.50;;
80623;SDS011;70269;44.768;9.600;2024-03-29T13:05:27;18.50;;;10.38;;
80623;SDS011;70269;44.768;9.600;2024-03-29T13:07:54;28.77;;;13.38;;
80623;SDS011;70269;44.768;9.600;2024-03-29T13:10:21;24.58;;;12.38;;
80623;SDS011;70269;44.768;9.600;2024-03-29T13:12:47;21.48;;;12.55;;
80623;SDS011;70269;44.768;9.600;2024-03-29T13:15:17;20.90;;;9.95;;
80623;SDS011;70269;44.768;9.600;2024-03-29T13:17:53;22.05;;;11.77;;
80623;SDS011;70269;44.768;9.600;2024-03-29T13:20:20;18.73;;;9.63;;
80623;SDS011;70269;44.768;9.600;2024-03-29T13:22:47;21.30;;;10.50;;
80623;SDS011;70269;44.768;9.600;2024-03-29T13:25:18;23.60;;;11.10;;
80623;SDS011;70269;44.768;9.600;2024-03-29T13:27:46;16.27;;;9.05;;
80623;SDS011;70269;44.768;9.600;2024-03-29T13:30:14;21.25;;;10.82;;
80623;SDS011;70269;44.768;9.600;2024-03-29T13:32:41;28.20;;;9.68;;
80623;SDS011;70269;44.768;9.600;2024-03-29T13:35:08;32.05;;;13.60;;
80623;SDS011;70269;44.768;9.600;2024-03-29T13:37:35;25.60;;;11.73;;
80623;SDS011;70269;44.768;9.600;2024-03-29T13:40:07;17.75;;;8.13;;
80623;SDS011;70269;44.768;9.600;2024-03-29T13:42:34;26.30;;;12.85;;
80623;SDS011;70269;44.768;9.600;2024-03-29T13:45:00;21.10;;;10.80;;
80623;SDS011;70269;44.768;9.600;2024-03-29T13:47:27;24.60;;;12.25;;
80623;SDS011;70269;44.768;9.600;2024-03-29T13:49:52;26.55;;;12.95;;
80623;SDS011;70269;44.768;9.600;2024-03-29T13:52:19;18.45;;;10.18;;
80623;SDS011;70269;44.768;9.600;2024-03-29T13:54:45;30.13;;;14.45;;
80623;SDS011;70269;44.768;9.600;2024-03-29T13:57:15;28.27;;;12.05;;
80623;SDS011;70269;44.768;9.600;2024-03-29T13:59:43;29.30;;;12.48;;
80623;SDS011;70269;44.768;9.600;2024-03-29T14:02:11;26.65;;;13.05;;
80623;SDS011;70269;44.768;9.600;2024-03-29T14:04:37;26.92;;;13.05;;
80623;SDS011;70269;44.768;9.600;2024-03-29T14:07:03;24.67;;;11.27;;
80623;SDS011;70269;44.768;9.600;2024-03-29T14:09:32;24.10;;;12.20;;
80623;SDS011;70269;44.768;9.600;2024-03-29T14:11:59;23.77;;;12.43;;
80623;SDS011;70269;44.768;9.600;2024-03-29T14:14:24;21.60;;;10.63;;
80623;SDS011;70269;44.768;9.600;2024-03-29T14:16:50;24.10;;;10.68;;
80623;SDS011;70269;44.768;9.600;2024-03-29T14:19:16;25.88;;;12.25;;
80623;SDS011;70269;44.768;9.600;2024-03-29T14:21:41;24.20;;;11.07;;
80623;SDS011;70269;44.768;9.600;2024-03-29T14:24:07;22.92;;;11.60;;
80623;SDS011;70269;44.768;9.600;2024-03-29T14:26:32;28.73;;;13.57;;
80623;SDS011;70269;44.768;9.600;2024-03-29T14:28:58;28.60;;;12.60;;
80623;SDS011;70269;44.768;9.600;2024-03-29T14:31:24;28.48;;;11.80;;
80623;SDS011;70269;44.768;9.600;2024-03-29T14:33:49;21.58;;;9.57;;
80623;SDS011;70269;44.768;9.600;2024-03-29T14:36:15;29.05;;;12.60;;
80623;SDS011;70269;44.768;9.600;2024-03-29T14:38:42;24.65;;;14.23;;
80623;SDS011;70269;44.768;9.600;2024-03-29T14:41:07;29.95;;;13.75;;
80623;SDS011;70269;44.768;9.600;2024-03-29T14:43:33;29.60;;;13.55;;
80623;SDS011;70269;44.768;9.600;2024-03-29T14:45:58;24.92;;;12.48;;
80623;SDS011;70269;44.768;9.600;2024-03-29T14:48:25;29.50;;;14.75;;
80623;SDS011;70269;44.768;9.600;2024-03-29T14:50:50;23.60;;;10.50;;
80623;SDS011;70269;44.768;9.600;2024-03-29T14:53:16;25.88;;;11.77;;
80623;SDS011;70269;44.768;9.600;2024-03-29T14:55:41;30.60;;;13.63;;
80623;SDS011;70269;44.768;9.600;2024-03-29T14:58:08;27.58;;;12.95;;
80623;SDS011;70269;44.768;9.600;2024-03-29T15:00:34;14.20;;;8.73;;
80623;SDS011;70269;44.768;9.600;2024-03-29T15:03:00;22.85;;;11.32;;
80623;SDS011;70269;44.768;9.600;2024-03-29T15:05:25;31.98;;;12.70;;
80623;SDS011;70269;44.768;9.600;2024-03-29T15:07:52;27.92;;;11.38;;
80623;SDS011;70269;44.768;9.600;2024-03-29T15:10:18;31.25;;;13.18;;
80623;SDS011;70269;44.768;9.600;2024-03-29T15:12:44;28.25;;;16.10;;